Latest Weather Observations for Sydney - Observatory Hill

IDN60801

Issued at 6:32 pm EST Monday 3 August 2015 (issued every 30 minutes, with the page automatically refreshed every 10 minutes)

About weather observations | Map of weather stations | Latest weather observations for NSW | Other Formats
Station Details ID: 066062 Name: SYDNEY (OBSERVATORY HILL) Lat: -33.86 Lon: 151.21 Height: 39.0 m
Data from the previous 72 hours. | See also: Recent months at Sydney - Observatory Hill

* Apparent temperature (App Temp) for Sydney - Observatory Hill is calculated using temperature observations collected at Sydney - Observatory Hill and wind observations collected at Fort Denison, as wind observations are not currently provided for Sydney - Observatory Hill.

Date/Time
EST
Temp
°C
App
Temp
°C
Dew
Point
Rel
Hum
%
Delta-T
°C
Wind Press
QNH
hPa
Press
MSL
hPa
Rain
since 9 am
mm
Dir
 
Spd
km/h
Gust
km/h
Spd
kts
Gust
kts
03/06:30pm 14.1 7.2 0.4 39 5.8 W 26 - 14 - 1018.1 1018.1 0.0
03/06:00pm 14.3 7.1 0.9 40 5.7 W 28 - 15 - 1017.5 1017.5 0.0
03/05:30pm 14.6 6.5 0.8 39 5.9 WSW 33 - 18 - 1017.0 1017.0 0.0
03/05:00pm 15.1 7.4 0.2 36 6.3 WSW 30 - 16 - 1016.3 1016.3 0.0
03/04:30pm 15.7 6.7 -0.1 34 6.7 WSW 37 - 20 - 1015.5 1015.5 0.0
03/04:00pm 16.6 9.7 0.3 33 7.0 WSW 26 - 14 - 1014.7 1014.7 0.0
03/03:30pm 18.0 10.7 0.2 30 7.8 WSW 28 - 15 - 1014.2 1014.2 0.0
03/03:00pm 19.0 13.9 0.6 29 8.2 WSW 17 - 9 - 1013.7 1013.7 0.0
03/02:30pm 18.6 10.6 0.7 30 7.9 W 32 - 17 - 1013.2 1013.2 0.0
03/02:00pm 19.2 12.8 1.2 30 8.1 W 24 - 13 - 1012.9 1012.9 0.0
03/01:30pm 18.3 11.8 0.4 30 7.9 W 24 - 13 - 1012.8 1012.8 0.0
03/01:00pm 17.8 12.1 0.5 31 7.6 W 20 - 11 - 1013.3 1013.3 0.0
03/12:30pm 17.2 12.5 1.2 34 7.1 W 15 - 8 - 1013.5 1013.5 0.0
03/12:00pm 15.8 10.1 0.8 36 6.5 W 20 - 11 - 1014.0 1014.0 0.0
03/11:30am 15.0 9.9 0.8 38 6.1 WNW 17 - 9 - 1014.4 1014.4 0.0
03/11:00am 14.5 9.4 0.7 39 5.9 WNW 17 - 9 - 1014.7 1014.7 0.0
03/10:30am 14.0 9.6 0.6 40 5.7 WNW 13 - 7 - 1015.1 1015.1 0.0
03/10:00am 13.6 8.6 1.3 43 5.3 NW 17 - 9 - 1015.2 1015.2 0.0
03/09:30am 12.9 7.9 1.3 45 4.9 NW 17 - 9 - 1015.2 1015.2 0.0
03/09:00am 11.7 6.1 1.1 48 4.4 WNW 20 - 11 - 1015.2 1015.2 0.0
03/08:30am 11.8 7.6 -0.7 42 5.0 NW 11 - 6 - 1015.1 1015.1 0.0
03/08:00am 11.1 7.1 0.2 47 4.5 WNW 11 - 6 - 1015.0 1015.0 0.0
03/07:30am 10.7 7.2 1.0 51 4.0 W 9 - 5 - 1014.7 1014.7 0.0
03/07:00am 8.7 5.6 1.1 59 3.1 W 7 - 4 - 1014.6 1014.6 0.0
03/06:30am 8.6 5.1 1.3 60 3.0 WNW 9 - 5 - 1014.4 1014.4 0.0
03/06:00am 9.3 5.6 0.0 52 3.7 W 9 - 5 - 1014.3 1014.3 0.0
03/05:30am 9.3 5.2 -0.3 51 3.8 W 11 - 6 - 1013.9 1013.9 0.0
03/05:00am 9.7 4.8 -0.8 48 4.1 W 15 - 8 - 1013.7 1013.7 0.0
03/04:30am 10.0 4.6 -1.1 46 4.4 W 17 - 9 - 1013.4 1013.4 0.0
03/04:00am 10.4 4.6 -1.3 44 4.6 W 19 - 10 - 1013.5 1013.5 0.0
03/03:30am 10.9 4.1 -1.5 42 4.9 WSW 24 - 13 - 1013.5 1013.5 0.0
03/03:00am 11.2 5.2 -1.5 41 5.0 WSW 20 - 11 - 1013.7 1013.7 0.0
03/02:30am 12.0 5.7 -1.2 40 5.3 WSW 22 - 12 - 1013.5 1013.5 0.0
03/02:00am 12.5 6.8 -0.4 41 5.3 WSW 19 - 10 - 1013.5 1013.5 0.0
03/01:30am 13.3 9.0 1.3 44 5.1 WSW 13 - 7 - 1013.4 1013.4 0.0
03/01:00am 13.8 8.6 3.6 50 4.6 WSW 20 - 11 - 1013.2 1013.2 0.0
03/12:30am 14.5 10.4 6.1 57 4.0 SW 17 - 9 - 1013.4 1013.4 0.0
03/12:00am 15.2 12.1 7.2 59 3.9 SW 13 - 7 - 1013.4 1013.4 0.0
 
Date/Time
EST
Temp
°C
App
Temp
°C
Dew
Point
Rel
Hum
%
Delta-T
°C
Wind Press
QNH
hPa
Press
MSL
hPa
Rain
since 9 am
mm
Dir
 
Spd
km/h
Gust
km/h
Spd
kts
Gust
kts
02/11:30pm 15.5 12.4 7.3 58 4.1 WNW 13 - 7 - 1013.1 1013.1 0.0
02/11:00pm 16.4 13.8 7.6 56 4.4 W 11 - 6 - 1013.3 1013.3 0.0
02/10:30pm 17.2 14.1 7.3 52 5.0 WNW 13 - 7 - 1013.3 1013.3 0.0
02/10:00pm 17.6 12.4 7.4 51 5.1 W 24 - 13 - 1013.2 1013.2 0.0
02/09:30pm 18.1 11.4 7.2 49 5.5 WNW 32 - 17 - 1012.9 1012.9 0.0
02/09:00pm 18.5 13.2 7.0 47 5.8 WNW 24 - 13 - 1012.9 1012.9 0.0
02/08:30pm 18.9 13.2 6.7 45 6.1 W 26 - 14 - 1012.7 1012.7 0.0
02/08:00pm 19.5 15.3 5.9 41 6.7 WNW 17 - 9 - 1012.6 1012.6 0.0
02/07:30pm 19.7 15.4 5.4 39 7.0 WNW 17 - 9 - 1013.0 1013.0 0.0
02/07:00pm 20.6 15.6 4.6 35 7.8 W 20 - 11 - 1012.9 1012.9 0.0
02/06:30pm 21.1 15.0 4.6 34 8.1 W 26 - 14 - 1012.3 1012.3 0.0
02/06:00pm 21.5 18.2 4.6 33 8.3 W 11 - 6 - 1011.4 1011.4 0.0
02/05:30pm 21.6 17.2 4.7 33 8.3 NW 17 - 9 - 1010.9 1010.9 0.0
02/05:00pm 22.4 17.4 4.5 31 8.8 NW 20 - 11 - 1010.3 1010.3 0.0
02/04:30pm 23.2 17.5 4.7 30 9.2 NW 24 - 13 - 1010.3 1010.3 0.0
02/04:00pm 23.7 17.8 4.1 28 9.7 NW 24 - 13 - 1010.0 1010.0 0.0
02/03:30pm 24.0 17.9 4.9 29 9.6 NW 26 - 14 - 1010.0 1010.0 0.0
02/03:00pm 23.8 18.9 5.2 30 9.4 NW 20 - 11 - 1010.4 1010.4 0.0
02/02:30pm 22.8 19.7 5.7 33 8.6 WNW 11 - 6 - 1010.4 1010.4 0.0
02/02:00pm 24.2 22.3 6.9 33 9.0 NW 6 - 3 - 1010.6 1010.6 0.0
02/01:30pm 22.4 20.9 7.0 37 7.9 NW 4 - 2 - 1011.1 1011.1 0.0
02/01:00pm 23.1 21.6 6.8 35 8.4 ESE 4 - 2 - 1011.5 1011.5 0.0
02/12:30pm 22.0 20.3 7.4 39 7.6 ESE 6 - 3 - 1011.8 1011.8 0.0
02/12:00pm 19.1 17.6 6.6 44 6.3 ESE 4 - 2 - 1012.3 1012.3 0.0
02/11:30am 17.8 15.7 6.7 48 5.5 WNW 7 - 4 - 1013.0 1013.0 0.0
02/11:00am 17.2 14.3 6.7 50 5.2 WNW 11 - 6 - 1013.9 1013.9 0.0
02/10:30am 15.8 12.7 5.7 51 4.9 WNW 11 - 6 - 1014.6 1014.6 0.0
02/10:00am 15.8 12.4 6.0 52 4.7 WNW 13 - 7 - 1014.8 1014.8 0.0
02/09:30am 16.6 13.7 6.4 51 5.0 W 11 - 6 - 1015.2 1015.2 0.0
02/09:00am 16.9 14.4 6.7 51 5.0 WNW 9 - 5 - 1015.1 1015.1 0.0
02/08:30am 17.1 15.7 5.7 47 5.5 SW 2 - 1 - 1015.3 1015.3 0.0
02/08:00am 16.6 14.2 5.3 47 5.4 NNW 7 - 4 - 1015.5 1015.5 0.0
02/07:30am 17.1 13.9 5.1 45 5.8 N 11 - 6 - 1015.4 1015.4 0.0
02/07:00am 16.8 13.6 5.1 46 5.6 N 11 - 6 - 1015.2 1015.2 0.0
02/06:30am 16.9 12.6 5.2 46 5.6 N 17 - 9 - 1015.0 1015.0 0.0
02/06:00am 16.7 12.0 5.3 47 5.5 N 19 - 10 - 1015.0 1015.0 0.0
02/05:30am 16.4 11.7 5.1 47 5.4 N 19 - 10 - 1015.2 1015.2 0.0
02/05:00am 16.5 11.5 4.5 45 5.6 N 20 - 11 - 1015.2 1015.2 0.0
02/04:30am 16.8 13.4 4.2 43 5.9 NNW 11 - 6 - 1015.3 1015.3 0.0
02/04:00am 17.0 14.5 4.7 44 5.8 N 7 - 4 - 1015.6 1015.6 0.0
02/03:30am 17.1 14.5 4.4 43 6.0 NNW 7 - 4 - 1015.6 1015.6 0.0
02/03:00am 16.8 14.3 4.5 44 5.8 WNW 7 - 4 - 1015.7 1015.7 0.0
02/02:30am 16.4 13.4 4.1 44 5.7 WNW 9 - 5 - 1016.1 1016.1 0.0
02/02:00am 16.5 13.3 4.9 46 5.5 NNW 11 - 6 - 1016.4 1016.4 0.0
02/01:30am 16.8 13.4 3.8 42 6.1 NNW 11 - 6 - 1016.5 1016.5 0.0
02/01:00am 17.3 14.6 3.9 41 6.3 N 7 - 4 - 1016.6 1016.6 0.0
02/12:30am 17.1 13.0 4.1 42 6.1 NNW 15 - 8 - 1016.5 1016.5 0.0
02/12:00am 17.2 13.0 3.8 41 6.2 NNW 15 - 8 - 1016.5 1016.5 0.0
 
Date/Time
EST
Temp
°C
App
Temp
°C
Dew
Point
Rel
Hum
%
Delta-T
°C
Wind Press
QNH
hPa
Press
MSL
hPa
Rain
since 9 am
mm
Dir
 
Spd
km/h
Gust
km/h
Spd
kts
Gust
kts
01/11:30pm 17.5 14.0 3.4 39 6.5 NNW 11 - 6 - 1016.9 1016.9 0.0
01/11:00pm 17.1 14.3 3.4 40 6.3 NNW 7 - 4 - 1017.3 1017.3 0.0
01/10:30pm 17.7 15.8 2.8 37 6.8 SSW 2 - 1 - 1017.4 1017.4 0.0
01/10:00pm 18.0 16.2 3.5 38 6.8 NE 2 - 1 - 1017.3 1017.3 0.0
01/09:30pm 18.1 15.5 4.3 40 6.6 ESE 7 - 4 - 1017.6 1017.6 0.0
01/09:00pm 18.0 15.5 3.9 39 6.6 ESE 6 - 3 - 1017.5 1017.5 0.0
01/08:30pm 18.2 15.9 2.5 35 7.2 ENE 4 - 2 - 1017.3 1017.3 0.0
01/08:00pm 18.0 14.3 2.3 35 7.1 N 11 - 6 - 1017.0 1017.0 0.0
01/07:30pm 18.7 14.6 2.1 33 7.6 NNW 13 - 7 - 1016.9 1016.9 0.0
01/07:00pm 19.1 15.0 2.5 33 7.7 NNW 13 - 7 - 1016.7 1016.7 0.0
01/06:30pm 18.9 14.1 2.7 34 7.5 NNW 17 - 9 - 1016.5 1016.5 0.0
01/06:00pm 18.4 14.2 1.9 33 7.5 NNW 13 - 7 - 1016.3 1016.3 0.0
01/05:30pm 18.5 15.1 1.9 33 7.5 NNW 9 - 5 - 1016.0 1016.0 0.0
01/05:00pm 19.1 14.2 2.0 32 7.8 NNW 17 - 9 - 1015.6 1015.6 0.0
01/04:30pm 19.6 14.3 1.6 30 8.2 NW 19 - 10 - 1015.7 1015.7 0.0
01/04:00pm 19.9 13.2 1.4 29 8.4 NW 26 - 14 - 1015.5 1015.5 0.0
01/03:30pm 21.3 14.3 2.1 28 8.9 NW 28 - 15 - 1015.6 1015.6 0.0
01/03:00pm 20.7 13.6 1.6 28 8.8 NW 28 - 15 - 1015.6 1015.6 0.0
01/02:30pm 21.5 14.5 2.2 28 9.0 NW 28 - 15 - 1015.3 1015.3 0.0
01/02:00pm 22.1 15.8 1.7 26 9.5 WNW 24 - 13 - 1015.2 1015.2 0.0
01/01:30pm 21.7 13.0 1.9 27 9.2 WNW 37 - 20 - 1015.5 1015.5 0.0
01/01:00pm 21.3 13.7 3.0 30 8.7 WNW 32 - 17 - 1015.3 1015.3 0.0
01/12:30pm 21.1 15.2 3.8 32 8.3 WNW 24 - 13 - 1015.5 1015.5 0.0
01/12:00pm 20.2 14.8 4.7 36 7.5 NW 22 - 12 - 1016.1 1016.1 0.0
01/11:30am 19.6 14.0 3.7 35 7.5 NW 22 - 12 - 1016.6 1016.6 0.0
01/11:00am 18.2 16.3 4.7 41 6.5 WNW 4 - 2 - 1017.3 1017.3 0.0
01/10:30am 17.2 14.8 5.2 45 5.8 SW 7 - 4 - 1017.9 1017.9 0.0
01/10:00am 16.6 14.9 5.9 49 5.2 W 4 - 2 - 1018.0 1018.0 0.0
01/09:30am 15.0 12.7 4.7 50 4.8 WNW 6 - 3 - 1018.2 1018.3 0.0
01/09:00am 14.3 10.3 5.1 54 4.3 NW 15 - 8 - 1018.5 1018.6 0.0
01/08:30am 13.5 9.7 4.1 53 4.3 NW 13 - 7 - 1018.6 1018.7 0.0
01/08:00am 13.9 9.8 4.2 52 4.4 NNW 15 - 8 - 1018.3 1018.4 0.0
01/07:30am 12.2 9.9 4.7 60 3.4 N 6 - 3 - 1018.2 1018.3 0.0
01/07:00am 10.7 8.9 3.7 62 3.1 NNW 2 - 1 - 1018.2 1018.3 0.0
01/06:30am 10.9 8.4 3.9 62 3.1 NW 6 - 3 - 1017.8 1017.9 0.0
01/06:00am 10.5 7.2 4.4 66 2.7 NW 11 - 6 - 1017.9 1018.0 0.0
01/05:30am 10.7 7.8 4.4 65 2.8 NW 9 - 5 - 1017.9 1018.0 0.0
01/05:00am 9.5 6.5 4.1 69 2.4 W 9 - 5 - 1017.9 1018.0 0.0
01/04:30am 10.2 6.5 4.4 67 2.6 NW 13 - 7 - 1018.4 1018.5 0.0
01/04:00am 10.1 6.9 5.1 71 2.3 WNW 11 - 6 - 1018.7 1018.8 0.0
01/03:30am 9.8 7.5 5.8 76 1.8 WNW 7 - 4 - 1018.6 1018.7 0.0
01/03:00am 9.8 7.6 6.3 79 1.6 NNW 7 - 4 - 1018.8 1018.9 0.0
01/02:30am 10.3 8.6 5.9 74 2.0 NW 4 - 2 - 1019.3 1019.4 0.0
01/02:00am 10.5 8.3 6.1 74 2.0 WNW 7 - 4 - 1019.5 1019.6 0.0
01/01:30am 10.9 8.3 6.1 72 2.2 WNW 9 - 5 - 1019.5 1019.6 0.0
01/01:00am 11.1 8.1 5.8 70 2.5 W 11 - 6 - 1019.8 1019.8 0.0
01/12:30am 11.3 8.3 6.2 71 2.4 W 11 - 6 - 1020.5 1020.5 0.0
01/12:00am 12.2 8.5 6.3 67 2.8 W 15 - 8 - 1021.0 1021.0 0.0
 
Date/Time
EST
Temp
°C
App
Temp
°C
Dew
Point
Rel
Hum
%
Delta-T
°C
Wind Press
QNH
hPa
Press
MSL
hPa
Rain
since 9 am
mm
Dir
 
Spd
km/h
Gust
km/h
Spd
kts
Gust
kts
31/11:30pm 12.9 9.6 6.3 64 3.1 W 13 - 7 - 1021.2 1021.2 0.0
31/11:00pm 13.2 10.4 6.8 65 3.1 W 11 - 6 - 1021.2 1021.2 0.0
31/10:30pm 14.1 10.9 6.9 62 3.5 NNW 13 - 7 - 1021.4 1021.4 0.0
31/10:00pm 15.8 12.4 7.8 59 4.0 N 15 - 8 - 1021.1 1021.1 0.0
31/09:30pm 15.7 12.7 7.5 58 4.1 N 13 - 7 - 1020.9 1020.9 0.0
31/09:00pm 15.8 13.2 7.6 58 4.1 NNE 11 - 6 - 1020.8 1020.8 0.0
31/08:30pm 16.1 13.1 7.8 58 4.2 NNE 13 - 7 - 1020.7 1020.7 0.0
31/08:00pm 16.2 13.3 8.2 59 4.0 NE 13 - 7 - 1020.8 1020.8 0.0
31/07:30pm 16.4 13.5 8.1 58 4.2 ENE 13 - 7 - 1020.8 1020.8 0.0
31/07:00pm 16.5 13.2 8.0 57 4.3 ENE 15 - 8 - 1020.6 1020.6 0.0

Other Formats:

Comma delimited format used in spreadsheet applications
http://www.bom.gov.au/fwo/IDN60801/IDN60801.94768.axf

JavaScript Object Notation format (JSON) in row-major order
http://www.bom.gov.au/fwo/IDN60801/IDN60801.94768.json